createdAt,value
2023-02-13T00:00:00.679Z,14.15
2023-02-13T00:02:26.537Z,14.38
2023-02-13T00:04:52.287Z,13.82
2023-02-13T00:07:18.060Z,13.02
2023-02-13T00:09:43.741Z,13.85
2023-02-13T00:12:09.560Z,14.20
2023-02-13T00:14:38.887Z,12.90
2023-02-13T00:17:04.832Z,14.45
2023-02-13T00:19:30.742Z,13.48
2023-02-13T00:21:56.474Z,13.02
2023-02-13T00:24:22.266Z,15.02
2023-02-13T00:26:47.990Z,10.75
2023-02-13T00:29:13.743Z,7.10
2023-02-13T00:31:39.549Z,5.15
2023-02-13T00:34:05.391Z,4.15
2023-02-13T00:36:31.168Z,3.28
2023-02-13T00:38:56.955Z,3.55
2023-02-13T00:41:22.771Z,3.17
2023-02-13T00:43:48.628Z,4.53
2023-02-13T00:46:14.956Z,3.88
2023-02-13T00:48:40.701Z,4.78
2023-02-13T00:51:06.758Z,4.63
2023-02-13T00:53:33.452Z,4.50
2023-02-13T00:55:59.342Z,6.90
2023-02-13T00:58:25.195Z,5.18
2023-02-13T01:00:52.055Z,4.82
2023-02-13T01:03:18.230Z,5.72
2023-02-13T01:05:44.407Z,5.55
2023-02-13T01:08:10.359Z,5.68
2023-02-13T01:10:39.748Z,5.93
2023-02-13T01:13:05.857Z,5.53
2023-02-13T01:15:32.107Z,5.30
2023-02-13T01:17:57.929Z,5.50
2023-02-13T01:20:24.298Z,7.15
2023-02-13T01:22:50.538Z,6.85
2023-02-13T01:25:16.523Z,7.85
2023-02-13T01:27:42.272Z,8.93
2023-02-13T01:30:12.976Z,9.98
2023-02-13T01:35:04.741Z,8.88
2023-02-13T01:37:30.466Z,8.68
2023-02-13T01:39:56.285Z,8.30
2023-02-13T01:42:24.989Z,8.38
2023-02-13T01:44:50.761Z,6.75
2023-02-13T01:47:22.325Z,7.53
2023-02-13T01:49:49.050Z,7.55
2023-02-13T01:52:15.765Z,7.38
2023-02-13T01:54:41.602Z,7.03
2023-02-13T01:57:26.930Z,6.80
2023-02-13T01:59:55.947Z,6.05
2023-02-13T02:02:22.005Z,5.72
2023-02-13T02:04:56.937Z,6.05
2023-02-13T02:07:27.196Z,5.63
2023-02-13T02:09:55.321Z,6.18
2023-02-13T02:12:32.365Z,5.78
2023-02-13T02:14:59.448Z,6.30
2023-02-13T02:17:25.928Z,7.22
2023-02-13T02:20:03.930Z,7.50
2023-02-13T02:22:40.350Z,7.38
2023-02-13T02:25:11.884Z,7.63
2023-02-13T02:27:40.393Z,8.77
2023-02-13T02:30:32.190Z,9.15
2023-02-13T02:33:36.295Z,8.98
2023-02-13T02:36:18.860Z,7.70
2023-02-13T02:38:47.517Z,8.07
2023-02-13T02:41:44.433Z,8.82
2023-02-13T02:44:22.900Z,8.23
2023-02-13T02:47:23.654Z,8.55
2023-02-13T02:50:01.386Z,9.20
2023-02-13T02:52:30.854Z,8.55
2023-02-13T02:55:07.192Z,10.52
2023-02-13T02:57:56.379Z,9.68
2023-02-13T03:00:42.549Z,10.00
2023-02-13T03:03:36.830Z,9.88
2023-02-13T03:06:10.525Z,8.98
2023-02-13T03:08:55.335Z,8.93
2023-02-13T03:11:39.869Z,10.80
2023-02-13T03:14:07.026Z,10.35
2023-02-13T03:16:51.229Z,9.45
2023-02-13T03:20:12.311Z,10.32
2023-02-13T03:25:03.659Z,9.18
2023-02-13T03:28:06.713Z,10.85
2023-02-13T03:30:43.280Z,10.15
2023-02-13T03:33:27.203Z,11.48
2023-02-13T03:36:40.566Z,10.13
2023-02-13T03:39:18.684Z,10.57
2023-02-13T03:41:47.537Z,9.55
2023-02-13T03:44:17.374Z,9.80
2023-02-13T03:46:47.160Z,11.33
2023-02-13T03:49:42.700Z,9.80
2023-02-13T03:52:16.702Z,9.60
2023-02-13T03:55:02.217Z,10.55
2023-02-13T03:57:47.584Z,9.70
2023-02-13T04:00:14.632Z,9.60
2023-02-13T04:03:09.791Z,9.20
2023-02-13T04:05:39.126Z,10.38
2023-02-13T04:08:04.861Z,9.15
2023-02-13T04:10:32.055Z,10.35
2023-02-13T04:13:17.253Z,8.80
2023-02-13T04:15:45.582Z,9.93
2023-02-13T04:18:20.061Z,8.80
2023-02-13T04:20:45.872Z,9.32
2023-02-13T04:23:11.775Z,9.52
2023-02-13T04:25:38.896Z,9.45
2023-02-13T04:28:04.654Z,9.50
2023-02-13T04:30:30.409Z,9.45
2023-02-13T04:32:56.164Z,5.50
2023-02-13T04:35:21.931Z,6.90
2023-02-13T04:37:47.702Z,7.10
2023-02-13T04:40:13.538Z,8.27
2023-02-13T04:42:39.254Z,8.65
2023-02-13T04:45:05.047Z,8.65
2023-02-13T04:47:30.803Z,8.77
2023-02-13T04:49:56.520Z,8.35
2023-02-13T04:52:22.346Z,8.45
2023-02-13T04:54:48.069Z,8.68
2023-02-13T04:57:14.704Z,8.77
2023-02-13T04:59:40.515Z,8.57
2023-02-13T05:02:06.432Z,8.30
2023-02-13T05:04:33.358Z,8.60
2023-02-13T05:06:59.149Z,7.65
2023-02-13T05:09:24.988Z,8.35
2023-02-13T05:11:51.616Z,8.65
2023-02-13T05:14:17.358Z,9.40
2023-02-13T05:16:43.099Z,8.98
2023-02-13T05:19:09.241Z,9.85
2023-02-13T05:21:53.218Z,10.15
2023-02-13T05:24:20.501Z,10.00
2023-02-13T05:26:46.555Z,10.50
2023-02-13T05:29:18.343Z,11.10
2023-02-13T05:31:48.358Z,9.60
2023-02-13T05:34:17.385Z,9.88
2023-02-13T05:36:43.340Z,9.85
2023-02-13T05:39:09.206Z,9.93
2023-02-13T05:41:34.938Z,11.57
2023-02-13T05:44:00.708Z,10.35
2023-02-13T05:46:26.513Z,10.85
2023-02-13T05:48:52.406Z,10.90
2023-02-13T05:51:18.794Z,11.38
2023-02-13T05:53:44.595Z,10.82
2023-02-13T05:56:10.352Z,10.27
2023-02-13T05:58:36.279Z,10.88
2023-02-13T06:01:02.519Z,11.73
2023-02-13T06:03:29.042Z,8.45
2023-02-13T06:05:55.151Z,9.45
2023-02-13T06:08:21.215Z,9.95
2023-02-13T06:10:47.731Z,9.50
2023-02-13T06:13:14.014Z,9.68
2023-02-13T06:15:40.109Z,9.68
2023-02-13T06:18:06.406Z,9.20
2023-02-13T06:20:32.642Z,9.68
2023-02-13T06:22:58.533Z,10.50
2023-02-13T06:25:24.343Z,11.40
2023-02-13T06:27:50.547Z,9.52
2023-02-13T06:30:16.912Z,10.63
2023-02-13T06:32:43.296Z,11.00
2023-02-13T06:35:18.402Z,12.40
2023-02-13T06:37:44.674Z,11.27
2023-02-13T06:42:53.426Z,10.90
2023-02-13T06:45:19.244Z,11.10
2023-02-13T06:47:46.760Z,10.07
2023-02-13T06:50:13.587Z,10.60
2023-02-13T06:52:40.945Z,10.88
2023-02-13T06:55:07.131Z,11.93
2023-02-13T06:57:33.157Z,11.85
2023-02-13T06:59:59.737Z,10.05
2023-02-13T07:02:25.664Z,12.75
2023-02-13T07:05:23.144Z,9.32
2023-02-13T07:07:49.110Z,9.23
2023-02-13T07:10:15.473Z,8.95
2023-02-13T07:12:41.489Z,9.23
2023-02-13T07:15:07.582Z,8.32
2023-02-13T07:17:33.856Z,8.57
2023-02-13T07:19:59.800Z,8.02
2023-02-13T07:22:25.711Z,9.10
2023-02-13T07:24:51.592Z,10.25
2023-02-13T07:27:17.556Z,7.20
2023-02-13T07:29:43.449Z,8.25
2023-02-13T07:32:09.914Z,7.53
2023-02-13T07:34:35.745Z,7.30
2023-02-13T07:37:01.542Z,6.95
2023-02-13T07:39:28.100Z,6.80
2023-02-13T07:41:54.120Z,7.10
2023-02-13T07:44:20.070Z,7.50
2023-02-13T07:46:45.915Z,8.10
2023-02-13T07:49:11.798Z,7.97
2023-02-13T07:51:37.586Z,9.60
2023-02-13T07:54:03.342Z,8.88
2023-02-13T07:56:29.076Z,8.15
2023-02-13T07:58:55.116Z,9.40
2023-02-13T08:01:21.085Z,9.40
2023-02-13T08:03:47.605Z,8.73
2023-02-13T08:06:13.479Z,9.43
2023-02-13T08:08:39.355Z,9.35
2023-02-13T08:11:25.316Z,8.13
2023-02-13T08:13:51.623Z,9.13
2023-02-13T08:16:18.048Z,8.50
2023-02-13T08:18:44.014Z,9.13
2023-02-13T08:21:10.269Z,9.82
2023-02-13T08:23:36.156Z,9.13
2023-02-13T08:26:02.332Z,8.48
2023-02-13T08:28:28.745Z,8.88
2023-02-13T08:30:54.910Z,8.88
2023-02-13T08:33:21.821Z,9.73
2023-02-13T08:35:50.936Z,9.93
2023-02-13T08:38:16.754Z,8.68
2023-02-13T08:40:43.091Z,7.55
2023-02-13T08:43:09.125Z,8.75
2023-02-13T08:45:35.018Z,11.93
2023-02-13T08:48:03.526Z,10.27
2023-02-13T08:50:29.483Z,8.52
2023-02-13T08:52:55.290Z,9.63
2023-02-13T08:55:21.122Z,9.18
2023-02-13T08:57:46.869Z,9.38
2023-02-13T09:00:12.941Z,8.73
2023-02-13T09:02:38.969Z,8.93
2023-02-13T09:05:04.998Z,8.63
2023-02-13T09:07:30.792Z,8.00
2023-02-13T09:09:56.612Z,8.13
2023-02-13T09:12:23.441Z,8.95
2023-02-13T09:14:49.259Z,8.43
2023-02-13T09:17:17.802Z,7.90
2023-02-13T09:19:43.624Z,7.80
2023-02-13T09:22:09.592Z,7.75
2023-02-13T09:24:35.559Z,10.35
2023-02-13T09:27:01.320Z,7.40
2023-02-13T09:29:30.688Z,10.13
2023-02-13T09:31:56.662Z,8.00
2023-02-13T09:34:31.698Z,8.52
2023-02-13T09:37:00.061Z,8.60
2023-02-13T09:39:27.223Z,8.23
2023-02-13T09:41:54.325Z,7.40
2023-02-13T09:44:35.313Z,7.93
2023-02-13T09:47:04.949Z,7.85
2023-02-13T09:49:33.048Z,8.77
2023-02-13T09:51:59.025Z,8.75
2023-02-13T09:54:29.105Z,7.68
2023-02-13T09:57:00.402Z,8.38
2023-02-13T09:59:36.889Z,6.80
2023-02-13T10:02:17.651Z,6.78
2023-02-13T10:04:58.517Z,7.03
2023-02-13T10:07:30.030Z,8.18
2023-02-13T10:10:02.705Z,8.88
2023-02-13T10:12:34.494Z,10.07
2023-02-13T10:15:26.861Z,8.77
2023-02-13T10:18:00.916Z,7.63
2023-02-13T10:20:31.943Z,8.00
2023-02-13T10:23:18.184Z,7.13
2023-02-13T10:25:49.140Z,8.18
2023-02-13T10:28:17.077Z,8.68
2023-02-13T10:30:49.859Z,12.13
2023-02-13T10:33:54.289Z,8.80
2023-02-13T10:36:40.210Z,7.88
2023-02-13T10:39:06.125Z,8.20
2023-02-13T10:41:35.099Z,7.82
2023-02-13T10:44:10.377Z,8.00
2023-02-13T10:46:55.043Z,8.35
2023-02-13T10:49:27.626Z,8.43
2023-02-13T10:51:56.713Z,8.23
2023-02-13T10:54:44.724Z,11.05
2023-02-13T10:57:15.204Z,10.68
2023-02-13T10:59:41.913Z,8.20
2023-02-13T11:02:07.726Z,8.73
2023-02-13T11:04:50.851Z,7.50
2023-02-13T11:07:18.940Z,8.35
2023-02-13T11:09:45.540Z,9.27
2023-02-13T11:12:26.018Z,7.95
2023-02-13T11:14:56.200Z,7.88
2023-02-13T11:17:22.962Z,8.40
2023-02-13T11:19:53.577Z,8.95
2023-02-13T11:22:36.820Z,8.25
2023-02-13T11:25:05.897Z,10.43
2023-02-13T11:27:33.555Z,8.52
2023-02-13T11:30:25.910Z,8.45
2023-02-13T11:32:59.935Z,8.95
2023-02-13T11:35:38.671Z,9.27
2023-02-13T11:38:10.256Z,8.52
2023-02-13T11:40:37.163Z,8.35
2023-02-13T11:43:06.370Z,10.23
2023-02-13T11:45:32.341Z,9.13
2023-02-13T11:47:58.396Z,9.57
2023-02-13T11:50:27.459Z,9.32
2023-02-13T11:53:02.535Z,8.10
2023-02-13T11:55:32.849Z,9.23
2023-02-13T11:58:00.620Z,8.60
2023-02-13T12:00:30.715Z,9.45
2023-02-13T12:02:57.047Z,8.63
2023-02-13T12:05:28.081Z,8.52
2023-02-13T12:07:59.334Z,9.00
2023-02-13T12:10:26.792Z,9.10
2023-02-13T12:12:56.218Z,9.85
2023-02-13T12:15:30.016Z,20.33
2023-02-13T12:18:03.542Z,8.52
2023-02-13T12:20:33.594Z,8.82
2023-02-13T12:22:59.517Z,8.25
2023-02-13T12:25:38.832Z,7.78
2023-02-13T12:28:27.642Z,8.27
2023-02-13T12:31:08.949Z,8.50
2023-02-13T12:33:37.943Z,9.00
2023-02-13T12:36:18.207Z,9.18
2023-02-13T12:38:57.374Z,8.35
2023-02-13T12:41:43.675Z,8.15
2023-02-13T12:44:19.053Z,8.00
2023-02-13T12:47:04.377Z,8.45
2023-02-13T12:49:58.263Z,8.20
2023-02-13T12:52:33.136Z,9.65
2023-02-13T12:54:59.099Z,8.15
2023-02-13T12:57:25.109Z,7.90
2023-02-13T13:00:10.355Z,8.98
2023-02-13T13:02:51.658Z,7.68
2023-02-13T13:05:43.285Z,7.10
2023-02-13T13:08:18.911Z,7.15
2023-02-13T13:10:52.704Z,8.35
2023-02-13T13:13:27.880Z,8.05
2023-02-13T13:15:59.518Z,7.22
2023-02-13T13:18:28.077Z,7.40
2023-02-13T13:21:13.033Z,8.32
2023-02-13T13:23:48.770Z,7.78
2023-02-13T13:26:21.189Z,7.15
2023-02-13T13:28:48.983Z,7.60
2023-02-13T13:31:15.881Z,7.80
2023-02-13T13:33:44.281Z,6.63
2023-02-13T13:36:36.309Z,7.05
2023-02-13T13:39:26.487Z,7.80
2023-02-13T13:41:54.309Z,6.90
2023-02-13T13:44:26.257Z,8.20
2023-02-13T13:47:00.650Z,7.65
2023-02-13T13:49:35.830Z,7.00
2023-02-13T13:52:20.602Z,7.65
2023-02-13T13:54:50.922Z,7.63
2023-02-13T13:57:17.700Z,7.35
2023-02-13T13:59:48.213Z,7.90
2023-02-13T14:02:17.457Z,7.78
2023-02-13T14:05:15.574Z,6.95
2023-02-13T14:07:41.932Z,7.78
2023-02-13T14:10:34.411Z,8.07
2023-02-13T14:13:04.904Z,8.25
2023-02-13T14:15:41.891Z,7.90
2023-02-13T14:18:18.785Z,7.32
2023-02-13T14:20:51.143Z,7.07
2023-02-13T14:23:23.447Z,8.90
2023-02-13T14:25:50.086Z,8.80
2023-02-13T14:28:26.866Z,6.93
2023-02-13T14:31:03.943Z,9.00
2023-02-13T14:33:31.557Z,9.02
2023-02-13T14:36:20.672Z,8.90
2023-02-13T14:38:55.045Z,8.68
2023-02-13T14:41:47.448Z,8.25
2023-02-13T14:44:16.518Z,8.25
2023-02-13T14:46:47.333Z,8.23
2023-02-13T14:49:18.288Z,9.00
2023-02-13T14:51:46.401Z,8.88
2023-02-13T14:54:25.222Z,7.97
2023-02-13T14:56:52.506Z,8.35
2023-02-13T14:59:19.668Z,7.80
2023-02-13T15:02:00.351Z,8.25
2023-02-13T15:04:41.876Z,8.50
2023-02-13T15:07:14.192Z,7.85
2023-02-13T15:09:40.925Z,8.38
2023-02-13T15:12:26.071Z,9.45
2023-02-13T15:14:51.927Z,8.38
2023-02-13T15:17:20.105Z,7.57
2023-02-13T15:19:48.355Z,8.25
2023-02-13T15:22:19.399Z,8.85
2023-02-13T15:24:46.677Z,8.77
2023-02-13T15:27:29.130Z,9.35
2023-02-13T15:30:03.704Z,10.13
2023-02-13T15:32:31.909Z,8.60
2023-02-13T15:34:58.047Z,8.73
2023-02-13T15:37:26.914Z,8.82
2023-02-13T15:39:52.878Z,8.98
2023-02-13T15:42:18.878Z,9.73
2023-02-13T15:44:46.720Z,8.18
2023-02-13T15:47:20.319Z,7.97
2023-02-13T15:49:47.712Z,8.00
2023-02-13T15:52:22.977Z,8.25
2023-02-13T15:54:49.948Z,8.30
2023-02-13T15:57:16.725Z,8.52
2023-02-13T15:59:43.151Z,8.98
2023-02-13T16:02:14.841Z,8.82
2023-02-13T16:04:56.741Z,9.70
2023-02-13T16:07:22.528Z,11.48
2023-02-13T16:09:49.365Z,8.65
2023-02-13T16:12:20.615Z,8.95
2023-02-13T16:14:59.425Z,9.65
2023-02-13T16:17:29.742Z,9.43
2023-02-13T16:20:04.200Z,10.00
2023-02-13T16:22:43.331Z,8.45
2023-02-13T16:25:11.938Z,8.88
2023-02-13T16:27:45.774Z,11.23
2023-02-13T16:30:20.778Z,10.02
2023-02-13T16:32:46.820Z,10.48
2023-02-13T16:35:48.585Z,12.55
2023-02-13T16:38:33.694Z,12.23
2023-02-13T16:41:25.590Z,10.13
2023-02-13T16:43:52.391Z,9.00
2023-02-13T16:46:27.985Z,8.05
2023-02-13T16:48:57.090Z,8.98
2023-02-13T16:51:29.017Z,9.07
2023-02-13T16:53:58.087Z,8.60
2023-02-13T16:56:24.285Z,8.73
2023-02-13T16:58:50.374Z,8.77
2023-02-13T17:01:17.638Z,9.95
2023-02-13T17:03:43.660Z,8.43
2023-02-13T17:06:25.040Z,10.27
2023-02-13T17:08:52.270Z,8.68
2023-02-13T17:11:18.872Z,9.32
2023-02-13T17:13:44.730Z,9.10
2023-02-13T17:16:11.838Z,8.55
2023-02-13T17:18:38.524Z,8.38
2023-02-13T17:21:05.098Z,9.68
2023-02-13T17:23:31.058Z,8.32
2023-02-13T17:25:57.146Z,10.23
2023-02-13T17:28:24.742Z,8.75
2023-02-13T17:30:52.629Z,9.05
2023-02-13T17:33:26.449Z,10.60
2023-02-13T17:35:58.519Z,9.82
2023-02-13T17:38:25.935Z,10.18
2023-02-13T17:40:53.520Z,9.05
2023-02-13T17:43:20.160Z,8.85
2023-02-13T17:45:46.827Z,9.98
2023-02-13T17:48:12.841Z,9.18
2023-02-13T17:50:38.973Z,8.68
2023-02-13T17:53:06.277Z,8.95
2023-02-13T17:55:32.930Z,9.50
2023-02-13T17:57:59.138Z,10.15
2023-02-13T18:00:28.919Z,9.13
2023-02-13T18:02:55.309Z,10.27
2023-02-13T18:05:32.600Z,10.00
2023-02-13T18:08:01.476Z,9.80
2023-02-13T18:10:27.968Z,9.63
2023-02-13T18:12:54.940Z,11.07
2023-02-13T18:15:20.802Z,10.23
2023-02-13T18:17:47.244Z,10.25
2023-02-13T18:20:15.119Z,11.25
2023-02-13T18:22:42.519Z,9.55
2023-02-13T18:25:08.745Z,11.30
2023-02-13T18:27:34.670Z,10.25
2023-02-13T18:30:00.928Z,9.55
2023-02-13T18:32:27.106Z,11.23
2023-02-13T18:35:21.182Z,11.35
2023-02-13T18:37:47.578Z,10.38
2023-02-13T18:40:14.454Z,12.20
2023-02-13T18:42:40.399Z,9.85
2023-02-13T18:45:06.332Z,11.10
2023-02-13T18:47:32.226Z,9.52
2023-02-13T18:49:58.632Z,11.57
2023-02-13T18:52:24.556Z,11.23
2023-02-13T18:54:51.503Z,10.75
2023-02-13T18:57:17.238Z,10.88
2023-02-13T18:59:42.981Z,11.80
2023-02-13T19:02:09.509Z,11.10
2023-02-13T19:04:35.400Z,10.25
2023-02-13T19:07:05.639Z,11.13
2023-02-13T19:09:31.803Z,10.23
2023-02-13T19:11:57.720Z,9.80
2023-02-13T19:14:25.184Z,11.57
2023-02-13T19:16:51.633Z,11.02
2023-02-13T19:19:17.505Z,10.35
2023-02-13T19:21:43.513Z,11.07
2023-02-13T19:24:11.067Z,11.43
2023-02-13T19:26:36.868Z,11.25
2023-02-13T19:29:03.484Z,10.38
2023-02-13T19:31:30.832Z,10.77
2023-02-13T19:33:57.011Z,10.70
2023-02-13T19:36:31.981Z,11.82
2023-02-13T19:38:59.527Z,11.23
2023-02-13T19:41:25.487Z,12.20
2023-02-13T19:43:52.860Z,10.98
2023-02-13T19:46:19.864Z,11.10
2023-02-13T19:48:48.597Z,10.88
2023-02-13T19:51:15.995Z,10.45
2023-02-13T19:53:41.770Z,11.23
2023-02-13T19:56:08.204Z,11.18
2023-02-13T19:58:36.887Z,12.75
2023-02-13T20:01:10.704Z,11.30
2023-02-13T20:03:36.775Z,10.63
2023-02-13T20:06:04.066Z,12.15
2023-02-13T20:08:29.919Z,10.80
2023-02-13T20:10:55.703Z,10.35
2023-02-13T20:13:21.485Z,10.55
2023-02-13T20:15:47.573Z,11.15
2023-02-13T20:18:13.450Z,11.60
2023-02-13T20:20:39.272Z,11.32
2023-02-13T20:23:05.756Z,11.43
2023-02-13T20:25:32.373Z,10.95
2023-02-13T20:27:58.976Z,12.65
2023-02-13T20:30:24.881Z,10.32
2023-02-13T20:32:50.797Z,11.40
2023-02-13T20:35:16.516Z,12.13
2023-02-13T20:37:42.263Z,11.38
2023-02-13T20:40:08.742Z,12.13
2023-02-13T20:42:34.705Z,11.68
2023-02-13T20:45:01.034Z,11.77
2023-02-13T20:47:27.082Z,11.60
2023-02-13T20:49:53.100Z,12.07
2023-02-13T20:52:19.034Z,12.13
2023-02-13T20:54:46.381Z,12.35
2023-02-13T20:57:13.386Z,12.30
2023-02-13T20:59:41.902Z,12.35
2023-02-13T21:02:08.778Z,13.60
2023-02-13T21:04:43.555Z,12.32
2023-02-13T21:07:09.378Z,11.77
2023-02-13T21:09:36.097Z,12.48
2023-02-13T21:12:02.460Z,11.95
2023-02-13T21:14:28.474Z,13.00
2023-02-13T21:16:54.400Z,12.98
2023-02-13T21:19:20.262Z,14.18
2023-02-13T21:21:46.316Z,14.68
2023-02-13T21:24:13.848Z,14.45
2023-02-13T21:26:40.176Z,15.48
2023-02-13T21:29:06.975Z,11.93
2023-02-13T21:31:34.204Z,13.98
2023-02-13T21:34:02.535Z,12.98
2023-02-13T21:36:29.380Z,12.85
2023-02-13T21:38:55.443Z,15.23
2023-02-13T21:41:21.469Z,14.02
2023-02-13T21:43:48.238Z,13.80
2023-02-13T21:46:18.239Z,14.52
2023-02-13T21:48:44.631Z,14.02
2023-02-13T21:51:12.139Z,13.13
2023-02-13T21:53:38.408Z,15.07
2023-02-13T21:56:05.702Z,14.13
2023-02-13T21:58:32.581Z,13.00
2023-02-13T22:00:58.894Z,14.13
2023-02-13T22:03:24.758Z,14.50
2023-02-13T22:05:50.542Z,12.10
2023-02-13T22:08:16.448Z,15.88
2023-02-13T22:10:42.350Z,15.02
2023-02-13T22:13:09.086Z,13.25
2023-02-13T22:15:35.793Z,14.00
2023-02-13T22:18:01.548Z,13.98
2023-02-13T22:20:27.305Z,12.90
2023-02-13T22:22:53.047Z,14.52
2023-02-13T22:25:18.863Z,14.18
2023-02-13T22:27:47.876Z,13.40
2023-02-13T22:30:14.645Z,13.35
2023-02-13T22:32:41.423Z,15.93
2023-02-13T22:35:22.619Z,14.52
2023-02-13T22:37:48.466Z,13.02
2023-02-13T22:40:14.220Z,15.57
2023-02-13T22:42:39.979Z,15.73
2023-02-13T22:45:06.106Z,15.68
2023-02-13T22:47:31.846Z,16.33
2023-02-13T22:49:57.584Z,13.90
2023-02-13T22:52:23.365Z,14.50
2023-02-13T22:54:49.100Z,13.70
2023-02-13T22:57:14.851Z,14.25
2023-02-13T22:59:40.808Z,14.52
2023-02-13T23:02:06.651Z,13.52
2023-02-13T23:04:32.565Z,14.60
2023-02-13T23:06:58.366Z,14.85
2023-02-13T23:09:24.116Z,14.40
2023-02-13T23:12:08.381Z,16.38
2023-02-13T23:14:34.091Z,15.50
2023-02-13T23:17:18.610Z,15.85
2023-02-13T23:19:44.920Z,15.13
2023-02-13T23:22:12.840Z,16.38
2023-02-13T23:24:38.794Z,14.75
2023-02-13T23:27:04.544Z,16.15
2023-02-13T23:29:30.265Z,16.05
2023-02-13T23:31:56.132Z,15.20
2023-02-13T23:34:22.006Z,14.40
2023-02-13T23:36:47.833Z,15.90
2023-02-13T23:39:13.623Z,15.45
2023-02-13T23:41:39.345Z,16.50
2023-02-13T23:44:05.156Z,15.00
2023-02-13T23:46:30.867Z,15.45
2023-02-13T23:48:57.267Z,15.43
2023-02-13T23:51:24.919Z,17.08
2023-02-13T23:53:54.212Z,16.35
2023-02-13T23:56:20.855Z,17.52
2023-02-13T23:58:46.575Z,16.33
